Terminal Aerodrome Forecast
Issued by NWS Albany, NY

Home | Current Version | Previous Version | Text Only | Print | Product List | Glossary On
Versions: 1 2 3 4 5 6 7 8 9 10 11 12 13 14 15 16
000
FTUS41 KALY 252300
TAFPOU
TAF
KPOU 252340Z 2600/2624 VRB03KT P6SM SKC
     FM260200 00000KT P6SM SKC
     FM261300 VRB03KT P6SM SCT250
     FM261600 21007KT P6SM FEW040 SCT250
     FM262100 21006KT P6SM SCT040 SCT120 SCT250=

USA.gov is the U.S. government's official web portal to all federal, state and local government web resources and services.